Alton, IL

09:21 PM CDT am 31. Oktober 2014 (GMT -0500)
KILALTON7 | Change Station
CLOSE
Current Station
Persönliche Wetterstationen
Location: Alton, IL
Höhe: 489 ft
Wetterstationen in der Umgebung
aktive Warnung: Freeze Warning

Höhe 489 ft 38.91 °N, 90.14 °W | Updated 22 seconds ago

Heiter
Heiter
37.9 °F
gefühlte 38 °F
N
2.2
Wind Wechselnd Wind aus Nordwest
Gusts 2.2 mph

Heute
Max. -- | schwach -- °F
--% Regenrisiko
Gestern
Max. -- | schwach -- °F
Precip. -- inch
7:26 AM 6:01 PM
Erstes Viertel, 61% visible
Druck 30.36 inch
Sichtweite 10.0 Meilen
Wolken Heiter
Windchill 38 °F
Taupunkt 23 °F
Feuchtigkeit 55%
Regen 0.00 inch
Schneehöhe Nicht verfügbar..
UV 0 von 12
Pollen 2.00 von 12
Luftqualität Nicht verfügbar..
Flu Activity Nicht verfügbar..
METAR KALN 010045Z 32008KT 10SM SKC 05/M09 A3036

More Conditions Fewer Conditions

Druck 30.36 inch
Sichtweite 10.0 Meilen
Wolken Heiter
Windchill 38 °F
Taupunkt 23 °F
Feuchtigkeit 55%
Regen 0.00 inch
Schneehöhe Nicht verfügbar..
UV 0 von 12
Pollen 2.00 von 12
Luftqualität Nicht verfügbar..
Flu Activity Nicht verfügbar..
METAR KALN 010045Z 32008KT 10SM SKC 05/M09 A3036

More Conditions Fewer Conditions

10-Day Weather Forecast

Almanac

Astronomie

Oct. 31, 2014 Aufgang Untergang
Genaue Zeit
Bürgerliche Dämmerung
Nautische Dämmerung
Astronomische Dämmerung
Mond
Länge des sichtbaren Lichts
Tageslänge
Tomorrow will be .
, % of the Moon is Illuminated

Heutige Rekorde

State Highs State Lows

Community

WunderPhotos

Upload Photos

1,766,823 Fotos hochgeladen!

WunderBlogs® & News

Nearby

Luftqualität

  Luftqualität LQ Index Schadstoff
Not available.

Schneehöhe

Station Depth Höhe

Erdbebenaktivität

Stadt Distance Mag. Time & Date
Minimum magnitude displayed is 2.5.

küstennahe Wassertemperaturen

Ort Temperatur

Wetterstationen in der Umgebung